Time;durP1;ratioP1;P1;durP2;ratioP2;P2;SDS_P1;SDS_P2;PMS_P1;PMS_P2;Temp;Humidity;BMP_temperature;BMP_pressure;BME280_temperature;BME280_humidity;BME280_pressure;Samples;Min_cycle;Max_cycle;Signal;HPM_P1;HPM_P2
2022/06/16 00:00:10;;;;;;;;;;;14.80;99.90;;;;;;5082793;27;35119;-45
2022/06/16 00:02:39;;;;;;;;;;;14.90;99.90;;;;;;5082241;27;38416;-55
2022/06/16 00:05:09;;;;;;;;;;;14.90;99.90;;;;;;5083592;27;38176;-55
2022/06/16 00:07:36;;;;;;;;;;;14.90;99.90;;;;;;5083541;28;37988;-47
2022/06/16 00:10:04;;;;;;;;;;;14.90;99.90;;;;;;5083206;27;37980;-46
2022/06/16 00:12:31;;;;;;;;;;;14.80;99.90;;;;;;5082491;27;37920;-49
2022/06/16 00:14:58;;;;;;;;;;;14.80;99.90;;;;;;5087296;27;40143;-46
2022/06/16 00:17:25;;;;;;;;;;;14.80;99.90;;;;;;5085682;27;37025;-44
2022/06/16 00:19:52;;;;;;;;;;;14.70;99.60;;;;;;5085919;27;35209;-47
2022/06/16 00:22:21;;;;;;;;;;;14.70;99.50;;;;;;5086183;27;38552;-44
2022/06/16 00:24:48;;;;;;;;;;;14.70;99.90;;;;;;5086457;27;38584;-45
2022/06/16 00:27:15;;;;;;;;;;;14.70;99.80;;;;;;5088609;27;35985;-54
2022/06/16 00:29:42;;;;;;;;;;;14.70;99.40;;;;;;5088882;27;37159;-44
2022/06/16 00:32:09;;;;;;;;;;;14.70;99.40;;;;;;5088501;27;36568;-45
2022/06/16 00:34:36;;;;;;;;;;;14.70;99.60;;;;;;5088982;27;38568;-55
2022/06/16 00:37:03;;;;;;;;;;;14.70;99.90;;;;;;5087839;27;41008;-44
2022/06/16 00:39:31;;;;;;;;;;;14.60;99.90;;;;;;5087814;27;36856;-46
2022/06/16 00:42:06;;;;;;;;;;;14.50;99.90;;;;;;5086842;27;39073;-46
2022/06/16 00:44:38;;;;;;;;;;;14.50;99.90;;;;;;5087731;27;38517;-46
2022/06/16 00:47:05;;;;;;;;;;;14.50;99.90;;;;;;5087310;27;37227;-45
2022/06/16 00:49:34;;;;;;;;;;;14.50;99.90;;;;;;5088479;27;36233;-46
2022/06/16 00:52:03;;;;;;;;;;;14.50;99.90;;;;;;5088388;27;38830;-46
2022/06/16 00:54:33;;;;;;;;;;;14.50;99.90;;;;;;5088527;27;37895;-45
2022/06/16 00:57:03;;;;;;;;;;;14.50;99.90;;;;;;5087691;27;36299;-54
2022/06/16 00:59:30;;;;;;;;;;;14.40;99.90;;;;;;5086891;27;36823;-54
2022/06/16 01:01:57;;;;;;;;;;;14.40;99.90;;;;;;5088207;28;36386;-44
2022/06/16 01:07:10;;;;;;;;;;;14.40;99.90;;;;;;5086665;27;37405;-45
2022/06/16 01:09:39;;;;;;;;;;;14.40;99.90;;;;;;5086978;27;36484;-45
2022/06/16 01:15:09;;;;;;;;;;;14.40;99.90;;;;;;5087364;28;40721;-46
2022/06/16 01:17:40;;;;;;;;;;;14.40;99.90;;;;;;5086978;27;37584;-45
2022/06/16 01:20:13;;;;;;;;;;;14.40;99.90;;;;;;5086951;27;38142;-45
2022/06/16 01:22:44;;;;;;;;;;;14.40;99.90;;;;;;5087058;27;36774;-55
2022/06/16 01:25:19;;;;;;;;;;;14.40;99.90;;;;;;5086532;27;36646;-55
2022/06/16 01:28:00;;;;;;;;;;;14.40;99.90;;;;;;5086737;27;37288;-54
2022/06/16 01:30:31;;;;;;;;;;;14.40;99.90;;;;;;5087898;27;38317;-55
2022/06/16 01:33:03;;;;;;;;;;;14.40;99.90;;;;;;5087186;27;37626;-55
2022/06/16 01:35:35;;;;;;;;;;;14.40;99.90;;;;;;5087035;27;36640;-54
2022/06/16 01:38:07;;;;;;;;;;;14.40;99.90;;;;;;5084590;27;37053;-54
2022/06/16 01:40:37;;;;;;;;;;;14.40;99.90;;;;;;5087937;27;36977;-44
2022/06/16 01:43:08;;;;;;;;;;;14.40;99.90;;;;;;5086973;28;37254;-47
2022/06/16 01:45:40;;;;;;;;;;;14.50;99.90;;;;;;5086533;27;37042;-55
2022/06/16 01:48:08;;;;;;;;;;;14.40;99.90;;;;;;5087178;28;37499;-53
2022/06/16 01:50:37;;;;;;;;;;;14.40;99.90;;;;;;5087609;27;36491;-55
2022/06/16 01:53:07;;;;;;;;;;;14.30;99.90;;;;;;5087090;27;37574;-54
2022/06/16 01:55:36;;;;;;;;;;;14.30;99.90;;;;;;5085487;27;38374;-54
2022/06/16 01:58:06;;;;;;;;;;;14.30;99.90;;;;;;5085613;28;36641;-54
2022/06/16 02:00:34;;;;;;;;;;;14.30;99.90;;;;;;5085315;27;37861;-54
2022/06/16 02:03:04;;;;;;;;;;;14.30;99.90;;;;;;5086264;27;36761;-47
2022/06/16 02:05:35;;;;;;;;;;;14.30;99.90;;;;;;5086184;27;38817;-47
2022/06/16 02:08:05;;;;;;;;;;;14.30;99.90;;;;;;5086748;27;38664;-45
2022/06/16 02:10:34;;;;;;;;;;;14.30;99.90;;;;;;5087155;27;35148;-55
2022/06/16 02:13:04;;;;;;;;;;;14.30;99.90;;;;;;5087064;27;36409;-54
2022/06/16 02:15:37;;;;;;;;;;;14.30;99.90;;;;;;5086088;27;39314;-54
2022/06/16 02:18:08;;;;;;;;;;;14.40;99.90;;;;;;5084555;27;36024;-55
2022/06/16 02:20:39;;;;;;;;;;;14.40;99.90;;;;;;5087620;27;36207;-54
2022/06/16 02:23:07;;;;;;;;;;;14.40;99.90;;;;;;5087409;27;38743;-54
2022/06/16 02:25:34;;;;;;;;;;;14.40;99.90;;;;;;5086665;27;39984;-53
2022/06/16 02:28:01;;;;;;;;;;;14.40;99.90;;;;;;5087414;27;37139;-55
2022/06/16 02:30:31;;;;;;;;;;;14.30;99.90;;;;;;5087449;27;36510;-54
2022/06/16 02:33:02;;;;;;;;;;;14.30;99.90;;;;;;5086982;27;39194;-54
2022/06/16 02:35:35;;;;;;;;;;;14.30;99.90;;;;;;5087212;27;38060;-54
2022/06/16 02:38:07;;;;;;;;;;;14.20;99.90;;;;;;5085036;27;37395;-54
2022/06/16 02:40:42;;;;;;;;;;;14.30;99.90;;;;;;5086536;27;37569;-54
2022/06/16 02:43:17;;;;;;;;;;;14.30;99.90;;;;;;5085730;27;37504;-55
2022/06/16 02:45:48;;;;;;;;;;;14.20;99.90;;;;;;5086186;27;38407;-55
2022/06/16 02:48:17;;;;;;;;;;;14.20;99.90;;;;;;5086078;27;36212;-45
2022/06/16 02:50:48;;;;;;;;;;;14.20;99.90;;;;;;5086299;27;35747;-54
2022/06/16 02:53:33;;;;;;;;;;;14.20;99.90;;;;;;5085654;27;41113;-55
2022/06/16 02:56:08;;;;;;;;;;;14.10;99.90;;;;;;5084950;27;38297;-54
2022/06/16 02:58:37;;;;;;;;;;;14.10;99.90;;;;;;5084046;27;38281;-54
2022/06/16 03:01:06;;;;;;;;;;;14.10;99.90;;;;;;5085903;27;37066;-54
2022/06/16 03:03:34;;;;;;;;;;;14.00;99.90;;;;;;5086313;27;38779;-54
2022/06/16 03:06:02;;;;;;;;;;;14.00;99.90;;;;;;5083844;27;39297;-44
2022/06/16 03:08:30;;;;;;;;;;;14.00;99.90;;;;;;5085510;27;37917;-45
2022/06/16 03:10:58;;;;;;;;;;;14.00;99.90;;;;;;5086583;27;37078;-45
2022/06/16 03:13:27;;;;;;;;;;;14.00;99.90;;;;;;5083192;27;38638;-46
2022/06/16 03:15:54;;;;;;;;;;;14.10;99.90;;;;;;5085819;27;36710;-53
2022/06/16 03:18:22;;;;;;;;;;;14.00;99.90;;;;;;5084531;27;38696;-54
2022/06/16 03:20:49;;;;;;;;;;;14.10;99.90;;;;;;5085754;27;37081;-53
2022/06/16 03:23:18;;;;;;;;;;;14.00;99.90;;;;;;5085788;28;37509;-46
2022/06/16 03:25:46;;;;;;;;;;;14.10;99.90;;;;;;5085454;27;38558;-45
2022/06/16 03:28:13;;;;;;;;;;;14.10;99.90;;;;;;5086056;27;35983;-46
2022/06/16 03:30:41;;;;;;;;;;;14.10;99.90;;;;;;5086061;27;36546;-48
2022/06/16 03:33:09;;;;;;;;;;;14.10;99.90;;;;;;5086377;28;39595;-46
2022/06/16 03:35:36;;;;;;;;;;;14.10;99.90;;;;;;5085804;27;38229;-46
2022/06/16 03:38:04;;;;;;;;;;;14.00;99.90;;;;;;5084000;27;38153;-45
2022/06/16 03:40:32;;;;;;;;;;;14.10;99.90;;;;;;5085374;27;36340;-45
2022/06/16 03:42:59;;;;;;;;;;;14.10;99.90;;;;;;5085602;27;38644;-44
2022/06/16 03:45:26;;;;;;;;;;;14.10;99.90;;;;;;5084431;27;36739;-54
2022/06/16 03:47:53;;;;;;;;;;;14.10;99.90;;;;;;5085070;27;37092;-53
2022/06/16 03:50:20;;;;;;;;;;;14.10;99.90;;;;;;5089311;27;35286;-55
2022/06/16 03:52:47;;;;;;;;;;;14.10;99.90;;;;;;5088825;27;38410;-55
2022/06/16 03:55:14;;;;;;;;;;;14.00;99.90;;;;;;5088748;27;36820;-54
2022/06/16 03:57:43;;;;;;;;;;;14.00;99.90;;;;;;5088766;27;37186;-54
2022/06/16 04:00:14;;;;;;;;;;;14.00;99.90;;;;;;5087989;27;36582;-54
2022/06/16 04:02:41;;;;;;;;;;;14.00;99.90;;;;;;5089015;27;37737;-54
2022/06/16 04:05:08;;;;;;;;;;;14.00;99.90;;;;;;5089211;27;38854;-45
2022/06/16 04:07:35;;;;;;;;;;;14.00;99.90;;;;;;5087873;27;37441;-45
2022/06/16 04:10:03;;;;;;;;;;;14.00;99.90;;;;;;5089021;28;37112;-46
2022/06/16 04:12:30;;;;;;;;;;;14.10;99.90;;;;;;5088638;27;38095;-45
2022/06/16 04:14:59;;;;;;;;;;;14.10;99.90;;;;;;5089181;27;39504;-45
2022/06/16 04:17:26;;;;;;;;;;;14.10;99.90;;;;;;5088338;27;37438;-45
2022/06/16 04:20:14;;;;;;;;;;;14.10;99.90;;;;;;5088255;27;35184;-46
2022/06/16 04:22:41;;;;;;;;;;;14.20;99.90;;;;;;5087178;27;38317;-45
2022/06/16 04:25:12;;;;;;;;;;;14.20;99.90;;;;;;5088059;27;36829;-45
2022/06/16 04:27:39;;;;;;;;;;;14.20;99.90;;;;;;5088219;27;36639;-46
2022/06/16 04:30:09;;;;;;;;;;;14.30;99.90;;;;;;5087748;27;37482;-46
2022/06/16 04:32:36;;;;;;;;;;;14.40;99.90;;;;;;5089617;27;37757;-46
2022/06/16 04:35:03;;;;;;;;;;;14.50;99.90;;;;;;5088521;27;38062;-45
2022/06/16 04:37:30;;;;;;;;;;;14.60;99.90;;;;;;5088222;27;35893;-44
2022/06/16 04:39:57;;;;;;;;;;;14.60;99.90;;;;;;5086051;27;36193;-45
2022/06/16 04:42:25;;;;;;;;;;;14.60;99.90;;;;;;5086398;27;39448;-44
2022/06/16 04:44:52;;;;;;;;;;;14.80;99.90;;;;;;5086834;27;38030;-53
2022/06/16 04:47:20;;;;;;;;;;;15.00;99.90;;;;;;5086958;27;36106;-47
2022/06/16 04:49:49;;;;;;;;;;;15.10;99.90;;;;;;5087663;27;37121;-46
2022/06/16 04:52:17;;;;;;;;;;;15.30;99.90;;;;;;5087284;27;36131;-46
2022/06/16 04:54:45;;;;;;;;;;;15.40;99.90;;;;;;5087853;27;36707;-47
2022/06/16 04:57:12;;;;;;;;;;;15.50;99.90;;;;;;5088310;27;38465;-46
2022/06/16 04:59:40;;;;;;;;;;;15.60;99.90;;;;;;5085629;27;36193;-47
2022/06/16 05:02:07;;;;;;;;;;;15.60;99.90;;;;;;5086561;27;38363;-46
2022/06/16 05:04:39;;;;;;;;;;;15.60;99.90;;;;;;5088554;27;37543;-45
2022/06/16 05:07:06;;;;;;;;;;;15.70;99.90;;;;;;5086890;27;37524;-44
2022/06/16 05:09:33;;;;;;;;;;;15.70;99.90;;;;;;5088159;27;36554;-45
2022/06/16 05:12:00;;;;;;;;;;;15.70;99.90;;;;;;5085224;27;36632;-45
2022/06/16 05:14:27;;;;;;;;;;;15.90;99.90;;;;;;5087033;27;38124;-45
2022/06/16 05:16:54;;;;;;;;;;;16.00;99.90;;;;;;5088022;27;36947;-45
2022/06/16 05:19:21;;;;;;;;;;;16.20;99.90;;;;;;5083232;27;36251;-45
2022/06/16 05:21:50;;;;;;;;;;;16.30;99.90;;;;;;5085690;27;36525;-45
2022/06/16 05:24:17;;;;;;;;;;;16.30;99.90;;;;;;5087320;27;36891;-46
2022/06/16 05:26:44;;;;;;;;;;;16.30;99.90;;;;;;5087582;27;37896;-45
2022/06/16 05:29:11;;;;;;;;;;;16.30;99.90;;;;;;5087707;27;37074;-46
2022/06/16 05:31:38;;;;;;;;;;;16.30;99.90;;;;;;5087485;27;37158;-45
2022/06/16 05:34:05;;;;;;;;;;;16.30;99.90;;;;;;5087787;27;38042;-46
2022/06/16 05:36:32;;;;;;;;;;;16.30;99.90;;;;;;5086829;27;36736;-45
2022/06/16 05:39:01;;;;;;;;;;;16.40;99.90;;;;;;5086419;27;36964;-45
2022/06/16 05:41:29;;;;;;;;;;;16.50;99.90;;;;;;5087866;27;38324;-45
2022/06/16 05:43:56;;;;;;;;;;;16.50;99.90;;;;;;5086655;27;37696;-46
2022/06/16 05:46:23;;;;;;;;;;;16.70;99.90;;;;;;5087599;27;41317;-45
2022/06/16 05:48:51;;;;;;;;;;;16.90;99.90;;;;;;5088144;28;37234;-46
2022/06/16 05:51:18;;;;;;;;;;;17.00;99.90;;;;;;5087949;28;36661;-45
2022/06/16 05:53:46;;;;;;;;;;;17.10;99.90;;;;;;5087721;27;39256;-47
2022/06/16 05:56:14;;;;;;;;;;;17.20;99.90;;;;;;5088126;27;39005;-47
2022/06/16 05:58:42;;;;;;;;;;;17.30;99.90;;;;;;5086618;27;36432;-45
2022/06/16 06:01:10;;;;;;;;;;;17.40;99.90;;;;;;5087483;27;36401;-46
2022/06/16 06:03:37;;;;;;;;;;;17.60;99.90;;;;;;5084886;27;38654;-46
2022/06/16 06:06:04;;;;;;;;;;;17.80;99.90;;;;;;5086662;27;38570;-46
2022/06/16 06:16:48;;;;;;;;;;;18.40;99.20;;;;;;5086950;28;38556;-44
2022/06/16 06:19:25;;;;;;;;;;;18.60;99.10;;;;;;5085094;27;36391;-46
2022/06/16 06:22:00;;;;;;;;;;;18.70;98.50;;;;;;5084262;27;36730;-46
2022/06/16 06:24:28;;;;;;;;;;;18.80;97.70;;;;;;5085252;27;37644;-45
2022/06/16 06:26:57;;;;;;;;;;;18.80;97.40;;;;;;5085357;27;38141;-46
2022/06/16 06:29:24;;;;;;;;;;;18.90;96.90;;;;;;5084749;27;36815;-45
2022/06/16 06:31:51;;;;;;;;;;;18.80;97.20;;;;;;5085485;27;37065;-48
2022/06/16 06:34:19;;;;;;;;;;;18.90;97.50;;;;;;5085758;27;37721;-45
2022/06/16 06:36:47;;;;;;;;;;;19.00;97.40;;;;;;5085745;27;37947;-44
2022/06/16 06:39:14;;;;;;;;;;;19.00;95.70;;;;;;5083313;27;36486;-45
2022/06/16 06:41:41;;;;;;;;;;;19.10;96.00;;;;;;5083480;27;38820;-45
2022/06/16 06:44:09;;;;;;;;;;;19.10;94.30;;;;;;5085198;27;37926;-46
2022/06/16 06:46:36;;;;;;;;;;;19.20;95.60;;;;;;5085731;27;36253;-45
2022/06/16 06:49:03;;;;;;;;;;;19.20;94.80;;;;;;5085892;27;36520;-46
2022/06/16 06:51:32;;;;;;;;;;;19.30;94.70;;;;;;5084929;27;39274;-48
2022/06/16 06:53:59;;;;;;;;;;;19.30;94.80;;;;;;5079879;27;37868;-46
2022/06/16 06:56:26;;;;;;;;;;;19.30;94.20;;;;;;5084221;27;40056;-45
2022/06/16 06:58:58;;;;;;;;;;;19.40;94.40;;;;;;5081089;27;36619;-46
2022/06/16 07:01:26;;;;;;;;;;;19.40;93.90;;;;;;5083977;27;38723;-47
2022/06/16 07:03:53;;;;;;;;;;;19.50;93.70;;;;;;5084651;27;38974;-45
2022/06/16 07:06:20;;;;;;;;;;;19.60;93.80;;;;;;5084647;27;36764;-45
2022/06/16 07:08:47;;;;;;;;;;;19.60;94.40;;;;;;5084984;27;37915;-46
2022/06/16 07:11:15;;;;;;;;;;;19.80;93.00;;;;;;5083522;28;41249;-46
2022/06/16 07:13:42;;;;;;;;;;;20.00;91.20;;;;;;5084810;27;39849;-47
2022/06/16 07:16:10;;;;;;;;;;;20.10;85.90;;;;;;5085061;27;36958;-45
2022/06/16 07:18:39;;;;;;;;;;;20.10;89.20;;;;;;5085803;27;40136;-45
2022/06/16 07:21:06;;;;;;;;;;;20.20;90.60;;;;;;5087508;27;36652;-49
2022/06/16 07:23:34;;;;;;;;;;;20.30;88.80;;;;;;5086713;27;38770;-47
2022/06/16 07:26:01;;;;;;;;;;;20.30;85.40;;;;;;5086629;27;37283;-46
2022/06/16 07:28:28;;;;;;;;;;;20.30;88.00;;;;;;5086544;27;36051;-45
2022/06/16 07:30:55;;;;;;;;;;;20.30;90.30;;;;;;5086506;27;39803;-45
2022/06/16 07:33:23;;;;;;;;;;;20.30;89.30;;;;;;5086844;28;36760;-45
2022/06/16 07:35:55;;;;;;;;;;;20.30;91.20;;;;;;5087156;27;37152;-46
2022/06/16 07:38:22;;;;;;;;;;;20.40;90.20;;;;;;5085472;27;36633;-47
2022/06/16 07:40:49;;;;;;;;;;;20.40;89.70;;;;;;5086912;27;38469;-45
2022/06/16 07:43:16;;;;;;;;;;;20.40;87.40;;;;;;5086519;27;37969;-45
2022/06/16 07:45:45;;;;;;;;;;;20.30;86.40;;;;;;5086613;27;36909;-45
2022/06/16 07:48:12;;;;;;;;;;;20.30;89.10;;;;;;5084824;27;36654;-47
2022/06/16 07:50:39;;;;;;;;;;;20.30;89.30;;;;;;5087950;27;37741;-46
2022/06/16 07:53:08;;;;;;;;;;;20.40;89.20;;;;;;5085884;27;38023;-46
2022/06/16 07:55:35;;;;;;;;;;;20.50;87.80;;;;;;5086540;27;38208;-45
2022/06/16 07:58:02;;;;;;;;;;;20.50;87.80;;;;;;5084161;27;35226;-45
2022/06/16 08:00:34;;;;;;;;;;;20.60;81.50;;;;;;5086518;27;37653;-44
2022/06/16 08:03:01;;;;;;;;;;;20.60;82.30;;;;;;5083930;27;37978;-45
2022/06/16 08:05:29;;;;;;;;;;;20.60;83.20;;;;;;5086560;27;36953;-46
2022/06/16 08:07:56;;;;;;;;;;;20.60;78.40;;;;;;5086500;27;36340;-47
2022/06/16 08:10:26;;;;;;;;;;;20.70;78.00;;;;;;5085440;27;39054;-47
2022/06/16 08:12:53;;;;;;;;;;;20.70;75.40;;;;;;5085645;27;38351;-45
2022/06/16 08:15:20;;;;;;;;;;;20.80;78.70;;;;;;5084983;27;38982;-47
2022/06/16 08:17:50;;;;;;;;;;;20.90;84.80;;;;;;5084575;27;35278;-45
2022/06/16 08:20:17;;;;;;;;;;;21.00;81.40;;;;;;5084448;28;37136;-45
2022/06/16 08:22:44;;;;;;;;;;;21.10;78.50;;;;;;5080306;27;38453;-49
2022/06/16 08:25:13;;;;;;;;;;;21.00;82.00;;;;;;5080382;27;37401;-46
2022/06/16 08:27:42;;;;;;;;;;;21.10;82.20;;;;;;5083687;27;36170;-49
2022/06/16 08:30:11;;;;;;;;;;;21.30;86.10;;;;;;5080049;27;38059;-46
2022/06/16 08:32:38;;;;;;;;;;;21.40;74.50;;;;;;5082337;27;37569;-46
2022/06/16 08:35:06;;;;;;;;;;;21.40;75.40;;;;;;5081675;27;37357;-46
2022/06/16 08:37:33;;;;;;;;;;;21.50;77.50;;;;;;5086190;27;36133;-49
2022/06/16 08:40:00;;;;;;;;;;;21.50;78.90;;;;;;5085614;27;38128;-56
2022/06/16 08:42:29;;;;;;;;;;;21.60;77.40;;;;;;5086611;27;40158;-56
2022/06/16 08:45:01;;;;;;;;;;;21.70;77.50;;;;;;5086511;27;37259;-55
2022/06/16 08:47:33;;;;;;;;;;;21.70;76.50;;;;;;5083944;28;37135;-56
2022/06/16 08:50:03;;;;;;;;;;;21.60;81.10;;;;;;5084012;27;37141;-56
2022/06/16 08:52:35;;;;;;;;;;;21.70;80.30;;;;;;5087587;27;38974;-57
2022/06/16 08:55:05;;;;;;;;;;;21.70;81.30;;;;;;5087701;27;37166;-56
2022/06/16 08:57:38;;;;;;;;;;;21.80;78.20;;;;;;5085928;27;36607;-56
2022/06/16 09:00:09;;;;;;;;;;;21.90;78.70;;;;;;5084678;27;39573;-56
2022/06/16 09:02:39;;;;;;;;;;;22.00;74.50;;;;;;5085241;27;38104;-57
2022/06/16 09:05:12;;;;;;;;;;;22.10;71.60;;;;;;5083634;27;37043;-56
2022/06/16 09:07:45;;;;;;;;;;;22.10;73.90;;;;;;5084987;27;35058;-57
2022/06/16 09:10:25;;;;;;;;;;;22.20;72.90;;;;;;5086227;27;38022;-57
2022/06/16 09:12:59;;;;;;;;;;;22.20;74.60;;;;;;5085098;27;37464;-47
2022/06/16 09:15:32;;;;;;;;;;;22.30;74.10;;;;;;5086027;28;37131;-46
2022/06/16 09:18:07;;;;;;;;;;;22.50;75.20;;;;;;5085938;28;37879;-47
2022/06/16 09:20:38;;;;;;;;;;;22.50;69.90;;;;;;5086341;27;38295;-47
2022/06/16 09:23:15;;;;;;;;;;;22.60;75.00;;;;;;5086879;27;36598;-47
2022/06/16 09:25:51;;;;;;;;;;;22.70;67.10;;;;;;5086270;27;37584;-46
2022/06/16 09:28:20;;;;;;;;;;;22.70;64.10;;;;;;5087123;27;35129;-48
2022/06/16 09:30:51;;;;;;;;;;;22.60;66.70;;;;;;5086495;27;37588;-45
2022/06/16 09:33:19;;;;;;;;;;;22.60;66.50;;;;;;5085457;27;38122;-46
2022/06/16 09:35:48;;;;;;;;;;;22.60;64.70;;;;;;5085279;27;38442;-46
2022/06/16 09:38:17;;;;;;;;;;;22.50;65.60;;;;;;5083765;27;36116;-48
2022/06/16 09:40:47;;;;;;;;;;;22.50;72.00;;;;;;5085526;27;37435;-46
2022/06/16 09:43:16;;;;;;;;;;;22.50;70.80;;;;;;5086230;27;38967;-45
2022/06/16 09:45:45;;;;;;;;;;;22.70;75.90;;;;;;5084532;27;37212;-47
2022/06/16 09:48:16;;;;;;;;;;;22.70;64.30;;;;;;5085443;27;37734;-45
2022/06/16 09:50:46;;;;;;;;;;;22.80;68.40;;;;;;5085566;28;37518;-46
2022/06/16 09:53:15;;;;;;;;;;;22.90;71.90;;;;;;5087154;27;37958;-46
2022/06/16 09:55:45;;;;;;;;;;;23.00;70.60;;;;;;5085118;27;38589;-46
2022/06/16 09:58:16;;;;;;;;;;;23.20;68.70;;;;;;5082918;27;36959;-49
2022/06/16 10:00:43;;;;;;;;;;;23.30;67.00;;;;;;5085006;27;36423;-48
2022/06/16 10:03:24;;;;;;;;;;;23.40;70.50;;;;;;5085067;28;32092;-49
2022/06/16 10:05:58;;;;;;;;;;;23.60;70.70;;;;;;5084685;27;36849;-45
2022/06/16 10:08:29;;;;;;;;;;;23.70;70.40;;;;;;5083748;27;37102;-49
2022/06/16 10:11:00;;;;;;;;;;;23.70;62.00;;;;;;5084156;28;37901;-50
2022/06/16 10:13:29;;;;;;;;;;;23.70;60.80;;;;;;5084169;27;38775;-47
2022/06/16 10:16:01;;;;;;;;;;;23.60;62.00;;;;;;5084589;27;37890;-47
2022/06/16 10:18:30;;;;;;;;;;;23.50;60.90;;;;;;5082134;27;39482;-47
2022/06/16 10:20:57;;;;;;;;;;;23.50;61.70;;;;;;5083221;28;37915;-46
2022/06/16 10:23:26;;;;;;;;;;;23.50;62.80;;;;;;5084473;27;36730;-48
2022/06/16 10:25:55;;;;;;;;;;;23.60;59.50;;;;;;5084196;27;37535;-47
2022/06/16 10:28:27;;;;;;;;;;;23.70;63.10;;;;;;5084591;27;36550;-46
2022/06/16 10:30:54;;;;;;;;;;;23.80;66.50;;;;;;5084514;27;37558;-47
2022/06/16 10:33:22;;;;;;;;;;;23.90;63.40;;;;;;5084189;27;38579;-48
2022/06/16 10:35:53;;;;;;;;;;;24.10;58.50;;;;;;5085808;27;35980;-47
2022/06/16 10:38:29;;;;;;;;;;;24.00;62.70;;;;;;5083942;27;36905;-51
2022/06/16 10:40:57;;;;;;;;;;;24.00;54.60;;;;;;5085386;28;37814;-47
2022/06/16 10:43:25;;;;;;;;;;;23.80;54.30;;;;;;5082889;27;39250;-47
2022/06/16 10:45:57;;;;;;;;;;;23.70;57.80;;;;;;5082662;27;36020;-48
2022/06/16 10:48:29;;;;;;;;;;;23.80;56.30;;;;;;5083890;27;36535;-47
2022/06/16 10:51:03;;;;;;;;;;;23.80;59.70;;;;;;5083422;27;37564;-51
2022/06/16 10:53:32;;;;;;;;;;;24.00;61.00;;;;;;5084013;27;38983;-49
2022/06/16 10:56:02;;;;;;;;;;;24.00;54.10;;;;;;5085211;27;37494;-48
2022/06/16 10:58:31;;;;;;;;;;;23.90;51.00;;;;;;5082519;27;35154;-47
2022/06/16 11:01:03;;;;;;;;;;;23.70;53.20;;;;;;5084695;27;37468;-47
2022/06/16 11:03:34;;;;;;;;;;;23.70;56.20;;;;;;5084677;27;38857;-48
2022/06/16 11:06:02;;;;;;;;;;;23.70;53.30;;;;;;5083788;27;36083;-48
2022/06/16 11:08:34;;;;;;;;;;;23.80;54.40;;;;;;5084315;27;35203;-47
2022/06/16 11:11:01;;;;;;;;;;;23.90;55.60;;;;;;5085009;28;36529;-45
2022/06/16 11:13:30;;;;;;;;;;;24.00;54.60;;;;;;5083474;27;38040;-47
2022/06/16 11:15:57;;;;;;;;;;;24.00;53.20;;;;;;5084175;27;37227;-45
2022/06/16 11:18:25;;;;;;;;;;;24.00;53.60;;;;;;5082497;27;37001;-44
2022/06/16 11:20:55;;;;;;;;;;;24.00;56.80;;;;;;5084131;27;36512;-48
2022/06/16 11:23:29;;;;;;;;;;;24.00;53.90;;;;;;5084505;27;39392;-45
2022/06/16 11:25:57;;;;;;;;;;;24.00;53.10;;;;;;5083940;28;36005;-48
2022/06/16 11:28:24;;;;;;;;;;;24.10;56.40;;;;;;5084526;27;35208;-45
2022/06/16 11:30:56;;;;;;;;;;;24.10;56.10;;;;;;5085356;27;40120;-44
2022/06/16 11:36:09;;;;;;;;;;;24.10;54.30;;;;;;5085442;28;37506;-45
2022/06/16 11:38:42;;;;;;;;;;;24.00;50.80;;;;;;5085016;27;36402;-47
2022/06/16 11:41:10;;;;;;;;;;;23.90;52.10;;;;;;5086657;27;36939;-44
2022/06/16 11:43:58;;;;;;;;;;;23.80;53.10;;;;;;5086027;27;38952;-45
2022/06/16 11:46:29;;;;;;;;;;;23.90;57.70;;;;;;5082728;27;37367;-47
2022/06/16 11:49:04;;;;;;;;;;;23.90;50.20;;;;;;5087380;27;36714;-48
2022/06/16 11:51:36;;;;;;;;;;;23.70;51.30;;;;;;5086468;27;39793;-49
2022/06/16 11:54:10;;;;;;;;;;;23.70;53.30;;;;;;5086952;27;36768;-49
2022/06/16 11:56:42;;;;;;;;;;;23.70;55.80;;;;;;5087139;27;35862;-48
2022/06/16 11:59:20;;;;;;;;;;;23.70;57.70;;;;;;5085733;27;35141;-50
2022/06/16 12:01:49;;;;;;;;;;;23.80;58.10;;;;;;5086305;27;37524;-51
2022/06/16 12:04:46;;;;;;;;;;;23.80;57.70;;;;;;5086907;27;37805;-47
2022/06/16 12:07:21;;;;;;;;;;;23.60;53.70;;;;;;5041479;28;39117;-46
2022/06/16 12:09:56;;;;;;;;;;;23.50;62.50;;;;;;5080041;27;37296;-57
2022/06/16 12:12:26;;;;;;;;;;;23.50;61.40;;;;;;5089049;27;36383;-57
2022/06/16 12:14:57;;;;;;;;;;;23.50;58.60;;;;;;5088977;27;38127;-57
2022/06/16 12:17:27;;;;;;;;;;;23.50;60.90;;;;;;5090308;27;37992;-57
2022/06/16 12:19:57;;;;;;;;;;;23.60;64.80;;;;;;5088879;27;36172;-57
2022/06/16 12:22:28;;;;;;;;;;;23.70;62.70;;;;;;5089325;28;37730;-57
2022/06/16 12:24:59;;;;;;;;;;;23.60;60.10;;;;;;5088987;27;38855;-57
2022/06/16 12:27:29;;;;;;;;;;;23.70;61.80;;;;;;5089801;27;35178;-57
2022/06/16 12:30:02;;;;;;;;;;;23.70;56.90;;;;;;5089157;27;36912;-57
2022/06/16 12:32:36;;;;;;;;;;;23.60;59.30;;;;;;5089635;27;36643;-57
2022/06/16 12:35:10;;;;;;;;;;;23.50;60.50;;;;;;5088800;27;41041;-57
2022/06/16 12:37:40;;;;;;;;;;;23.30;58.30;;;;;;5088840;28;38039;-57
2022/06/16 12:40:11;;;;;;;;;;;23.20;58.30;;;;;;5087443;27;36736;-57
2022/06/16 12:42:40;;;;;;;;;;;23.20;64.10;;;;;;5088855;27;36413;-57
2022/06/16 12:45:09;;;;;;;;;;;23.30;62.90;;;;;;5088119;27;37646;-58
2022/06/16 12:47:39;;;;;;;;;;;23.30;64.00;;;;;;5089704;27;38486;-57
2022/06/16 12:50:08;;;;;;;;;;;23.30;63.90;;;;;;5086636;27;36355;-57
2022/06/16 12:52:37;;;;;;;;;;;23.30;64.60;;;;;;5086562;27;39312;-57
2022/06/16 12:55:07;;;;;;;;;;;23.30;62.70;;;;;;5086608;27;39333;-57
2022/06/16 12:57:38;;;;;;;;;;;23.20;63.90;;;;;;5086627;27;40178;-57
2022/06/16 13:00:08;;;;;;;;;;;23.20;62.00;;;;;;5085709;27;37757;-57
2022/06/16 13:02:37;;;;;;;;;;;23.10;63.90;;;;;;5086353;27;36905;-57
2022/06/16 13:05:09;;;;;;;;;;;23.10;67.60;;;;;;5087130;27;36150;-57
2022/06/16 13:07:37;;;;;;;;;;;23.10;63.80;;;;;;5085618;27;37649;-56
2022/06/16 13:10:05;;;;;;;;;;;23.00;64.60;;;;;;5082814;27;35375;-57
2022/06/16 13:12:34;;;;;;;;;;;23.00;64.90;;;;;;5085804;27;38175;-57
2022/06/16 13:15:06;;;;;;;;;;;23.00;63.50;;;;;;5086331;27;38547;-57
2022/06/16 13:17:38;;;;;;;;;;;23.00;60.40;;;;;;5085955;27;37327;-57
2022/06/16 13:20:06;;;;;;;;;;;23.00;63.50;;;;;;5083300;27;37657;-57
2022/06/16 13:22:36;;;;;;;;;;;22.90;60.30;;;;;;5085926;27;37968;-57
2022/06/16 13:25:06;;;;;;;;;;;22.90;62.20;;;;;;5086308;27;40418;-56
2022/06/16 13:27:40;;;;;;;;;;;22.90;60.80;;;;;;5085599;27;37958;-57
2022/06/16 13:30:21;;;;;;;;;;;22.90;61.10;;;;;;5084131;27;36330;-57
2022/06/16 13:33:09;;;;;;;;;;;22.90;60.10;;;;;;5088638;27;38776;-57
2022/06/16 13:35:48;;;;;;;;;;;22.70;58.70;;;;;;5084752;27;38437;-57
2022/06/16 13:38:23;;;;;;;;;;;22.60;59.20;;;;;;5087966;27;37156;-57
2022/06/16 13:41:11;;;;;;;;;;;22.50;59.70;;;;;;5087504;27;37178;-56
2022/06/16 13:43:38;;;;;;;;;;;22.50;62.00;;;;;;5085336;27;38372;-57
2022/06/16 13:46:06;;;;;;;;;;;22.50;59.40;;;;;;5087461;27;37686;-56
2022/06/16 13:48:43;;;;;;;;;;;22.50;61.60;;;;;;5087446;27;36428;-57
2022/06/16 13:51:25;;;;;;;;;;;22.50;61.20;;;;;;5086733;27;35173;-57
2022/06/16 13:53:52;;;;;;;;;;;22.50;62.20;;;;;;5086278;27;38576;-57
2022/06/16 13:56:28;;;;;;;;;;;22.60;62.60;;;;;;5085593;27;36744;-57
2022/06/16 13:59:22;;;;;;;;;;;22.60;61.70;;;;;;5085038;27;37168;-57
2022/06/16 14:02:07;;;;;;;;;;;22.60;61.30;;;;;;5060461;27;35659;-57
2022/06/16 14:04:35;;;;;;;;;;;22.50;59.20;;;;;;5087812;27;38702;-57
2022/06/16 14:07:06;;;;;;;;;;;22.50;61.40;;;;;;5086978;27;39273;-57
2022/06/16 14:09:34;;;;;;;;;;;22.40;62.50;;;;;;5086468;28;37539;-57
2022/06/16 14:12:15;;;;;;;;;;;22.40;61.70;;;;;;5084385;27;36454;-58
2022/06/16 14:15:03;;;;;;;;;;;22.40;61.80;;;;;;5085701;27;37779;-58
2022/06/16 14:17:33;;;;;;;;;;;22.40;64.90;;;;;;5080889;27;38326;-57
2022/06/16 14:20:02;;;;;;;;;;;22.40;64.40;;;;;;5085670;27;37632;-57
2022/06/16 14:22:30;;;;;;;;;;;22.40;65.30;;;;;;5087372;28;36060;-55
2022/06/16 14:25:01;;;;;;;;;;;22.30;64.20;;;;;;5086807;27;37149;-55
2022/06/16 14:27:31;;;;;;;;;;;22.30;63.80;;;;;;5087275;27;38682;-55
2022/06/16 14:30:00;;;;;;;;;;;22.30;66.90;;;;;;5086895;27;35946;-57
2022/06/16 14:32:31;;;;;;;;;;;22.30;65.50;;;;;;5087182;27;36465;-56
2022/06/16 14:35:03;;;;;;;;;;;22.30;67.50;;;;;;5086744;27;38949;-57
2022/06/16 14:37:33;;;;;;;;;;;22.30;66.90;;;;;;5086950;27;38508;-56
2022/06/16 14:40:03;;;;;;;;;;;22.20;68.40;;;;;;5085497;27;36701;-57
2022/06/16 14:42:32;;;;;;;;;;;22.10;69.30;;;;;;5087340;27;37600;-57
2022/06/16 14:45:01;;;;;;;;;;;22.10;66.30;;;;;;5086914;27;37912;-57
2022/06/16 14:47:32;;;;;;;;;;;22.10;68.60;;;;;;5086261;27;38276;-57